sensor_id;sensor_type;location;lat;lon;timestamp;P1;durP1;ratioP1;P2;durP2;ratioP2
7460;SDS011;6757;52.258;12.840;2023-05-07T00:01:38;5.63;;;2.75;;
7460;SDS011;6757;52.258;12.840;2023-05-07T00:04:05;6.20;;;2.40;;
7460;SDS011;6757;52.258;12.840;2023-05-07T00:06:32;7.03;;;2.55;;
7460;SDS011;6757;52.258;12.840;2023-05-07T00:08:59;7.70;;;3.28;;
7460;SDS011;6757;52.258;12.840;2023-05-07T00:11:26;6.38;;;2.85;;
7460;SDS011;6757;52.258;12.840;2023-05-07T00:13:53;6.22;;;2.85;;
7460;SDS011;6757;52.258;12.840;2023-05-07T00:16:22;6.22;;;2.92;;
7460;SDS011;6757;52.258;12.840;2023-05-07T00:18:49;7.78;;;3.28;;
7460;SDS011;6757;52.258;12.840;2023-05-07T00:21:16;6.25;;;2.75;;
7460;SDS011;6757;52.258;12.840;2023-05-07T00:23:42;4.65;;;3.00;;
7460;SDS011;6757;52.258;12.840;2023-05-07T00:26:09;7.20;;;3.60;;
7460;SDS011;6757;52.258;12.840;2023-05-07T00:28:36;8.60;;;3.15;;
7460;SDS011;6757;52.258;12.840;2023-05-07T00:31:04;7.18;;;3.30;;
7460;SDS011;6757;52.258;12.840;2023-05-07T00:33:32;5.00;;;2.90;;
7460;SDS011;6757;52.258;12.840;2023-05-07T00:35:59;7.60;;;2.85;;
7460;SDS011;6757;52.258;12.840;2023-05-07T00:38:27;4.72;;;2.75;;
7460;SDS011;6757;52.258;12.840;2023-05-07T00:40:53;6.00;;;2.63;;
7460;SDS011;6757;52.258;12.840;2023-05-07T00:43:20;8.07;;;3.22;;
7460;SDS011;6757;52.258;12.840;2023-05-07T00:45:47;8.80;;;3.60;;
7460;SDS011;6757;52.258;12.840;2023-05-07T00:48:15;5.57;;;2.63;;
7460;SDS011;6757;52.258;12.840;2023-05-07T00:50:43;4.13;;;2.08;;
7460;SDS011;6757;52.258;12.840;2023-05-07T00:53:12;8.25;;;3.42;;
7460;SDS011;6757;52.258;12.840;2023-05-07T00:55:39;11.07;;;3.20;;
7460;SDS011;6757;52.258;12.840;2023-05-07T00:58:06;6.13;;;3.33;;
7460;SDS011;6757;52.258;12.840;2023-05-07T01:00:33;4.60;;;2.55;;
7460;SDS011;6757;52.258;12.840;2023-05-07T01:03:00;4.75;;;2.83;;
7460;SDS011;6757;52.258;12.840;2023-05-07T01:05:27;6.90;;;2.80;;
7460;SDS011;6757;52.258;12.840;2023-05-07T01:07:57;8.25;;;3.35;;
7460;SDS011;6757;52.258;12.840;2023-05-07T01:10:24;8.88;;;3.35;;
7460;SDS011;6757;52.258;12.840;2023-05-07T01:12:52;7.60;;;3.50;;
7460;SDS011;6757;52.258;12.840;2023-05-07T01:15:21;8.77;;;3.60;;
7460;SDS011;6757;52.258;12.840;2023-05-07T01:17:48;6.72;;;2.97;;
7460;SDS011;6757;52.258;12.840;2023-05-07T01:20:15;5.15;;;2.80;;
7460;SDS011;6757;52.258;12.840;2023-05-07T01:22:43;7.70;;;2.90;;
7460;SDS011;6757;52.258;12.840;2023-05-07T01:25:10;8.57;;;3.45;;
7460;SDS011;6757;52.258;12.840;2023-05-07T01:27:38;7.55;;;3.50;;
7460;SDS011;6757;52.258;12.840;2023-05-07T01:30:06;6.47;;;2.78;;
7460;SDS011;6757;52.258;12.840;2023-05-07T01:32:37;8.82;;;3.63;;
7460;SDS011;6757;52.258;12.840;2023-05-07T01:35:11;10.50;;;3.65;;
7460;SDS011;6757;52.258;12.840;2023-05-07T01:37:43;9.27;;;3.17;;
7460;SDS011;6757;52.258;12.840;2023-05-07T01:40:11;6.72;;;2.95;;
7460;SDS011;6757;52.258;12.840;2023-05-07T01:42:38;8.50;;;3.45;;
7460;SDS011;6757;52.258;12.840;2023-05-07T01:45:05;8.65;;;3.28;;
7460;SDS011;6757;52.258;12.840;2023-05-07T01:47:33;6.22;;;3.17;;
7460;SDS011;6757;52.258;12.840;2023-05-07T01:50:02;4.75;;;2.45;;
7460;SDS011;6757;52.258;12.840;2023-05-07T01:52:31;5.25;;;2.90;;
7460;SDS011;6757;52.258;12.840;2023-05-07T01:54:59;10.57;;;4.03;;
7460;SDS011;6757;52.258;12.840;2023-05-07T01:57:26;6.15;;;2.88;;
7460;SDS011;6757;52.258;12.840;2023-05-07T01:59:53;6.93;;;2.90;;
7460;SDS011;6757;52.258;12.840;2023-05-07T02:02:20;6.82;;;2.92;;
7460;SDS011;6757;52.258;12.840;2023-05-07T02:04:47;5.05;;;2.63;;
7460;SDS011;6757;52.258;12.840;2023-05-07T02:07:13;7.18;;;2.90;;
7460;SDS011;6757;52.258;12.840;2023-05-07T02:09:40;7.80;;;3.33;;
7460;SDS011;6757;52.258;12.840;2023-05-07T02:12:09;7.90;;;3.55;;
7460;SDS011;6757;52.258;12.840;2023-05-07T02:14:36;4.93;;;2.47;;
7460;SDS011;6757;52.258;12.840;2023-05-07T02:17:02;8.73;;;3.00;;
7460;SDS011;6757;52.258;12.840;2023-05-07T02:19:29;6.85;;;3.25;;
7460;SDS011;6757;52.258;12.840;2023-05-07T02:21:56;7.80;;;3.10;;
7460;SDS011;6757;52.258;12.840;2023-05-07T02:24:23;3.75;;;2.30;;
7460;SDS011;6757;52.258;12.840;2023-05-07T02:26:50;7.50;;;2.83;;
7460;SDS011;6757;52.258;12.840;2023-05-07T02:29:18;9.05;;;3.83;;
7460;SDS011;6757;52.258;12.840;2023-05-07T02:31:45;8.95;;;3.20;;
7460;SDS011;6757;52.258;12.840;2023-05-07T02:34:15;5.88;;;3.55;;
7460;SDS011;6757;52.258;12.840;2023-05-07T02:36:42;6.43;;;2.88;;
7460;SDS011;6757;52.258;12.840;2023-05-07T02:39:09;9.50;;;3.55;;
7460;SDS011;6757;52.258;12.840;2023-05-07T02:41:36;6.88;;;3.20;;
7460;SDS011;6757;52.258;12.840;2023-05-07T02:44:03;9.43;;;3.15;;
7460;SDS011;6757;52.258;12.840;2023-05-07T02:46:31;6.32;;;3.10;;
7460;SDS011;6757;52.258;12.840;2023-05-07T02:48:58;6.47;;;3.03;;
7460;SDS011;6757;52.258;12.840;2023-05-07T02:51:25;9.57;;;3.17;;
7460;SDS011;6757;52.258;12.840;2023-05-07T02:53:52;7.78;;;2.97;;
7460;SDS011;6757;52.258;12.840;2023-05-07T02:56:20;6.82;;;2.95;;
7460;SDS011;6757;52.258;12.840;2023-05-07T02:58:46;6.50;;;2.72;;
7460;SDS011;6757;52.258;12.840;2023-05-07T03:01:13;7.10;;;3.05;;
7460;SDS011;6757;52.258;12.840;2023-05-07T03:03:42;6.28;;;3.38;;
7460;SDS011;6757;52.258;12.840;2023-05-07T03:06:10;7.03;;;2.72;;
7460;SDS011;6757;52.258;12.840;2023-05-07T03:08:37;12.55;;;4.05;;
7460;SDS011;6757;52.258;12.840;2023-05-07T03:11:04;10.27;;;3.22;;
7460;SDS011;6757;52.258;12.840;2023-05-07T03:13:30;9.07;;;3.38;;
7460;SDS011;6757;52.258;12.840;2023-05-07T03:15:57;9.20;;;3.63;;
7460;SDS011;6757;52.258;12.840;2023-05-07T03:18:24;6.80;;;3.00;;
7460;SDS011;6757;52.258;12.840;2023-05-07T03:20:52;9.05;;;2.75;;
7460;SDS011;6757;52.258;12.840;2023-05-07T03:23:19;6.00;;;2.95;;
7460;SDS011;6757;52.258;12.840;2023-05-07T03:25:46;8.32;;;2.90;;
7460;SDS011;6757;52.258;12.840;2023-05-07T03:28:13;9.45;;;3.45;;
7460;SDS011;6757;52.258;12.840;2023-05-07T03:30:40;8.35;;;3.33;;
7460;SDS011;6757;52.258;12.840;2023-05-07T03:33:07;5.80;;;3.30;;
7460;SDS011;6757;52.258;12.840;2023-05-07T03:35:34;7.25;;;2.95;;
7460;SDS011;6757;52.258;12.840;2023-05-07T03:38:02;4.35;;;2.30;;
7460;SDS011;6757;52.258;12.840;2023-05-07T03:40:29;6.65;;;2.35;;
7460;SDS011;6757;52.258;12.840;2023-05-07T03:42:56;4.90;;;2.75;;
7460;SDS011;6757;52.258;12.840;2023-05-07T03:45:23;4.30;;;2.53;;
7460;SDS011;6757;52.258;12.840;2023-05-07T03:47:50;6.63;;;2.67;;
7460;SDS011;6757;52.258;12.840;2023-05-07T03:50:17;6.60;;;2.78;;
7460;SDS011;6757;52.258;12.840;2023-05-07T03:52:44;7.20;;;3.40;;
7460;SDS011;6757;52.258;12.840;2023-05-07T03:55:12;10.52;;;3.55;;
7460;SDS011;6757;52.258;12.840;2023-05-07T03:57:39;6.20;;;2.92;;
7460;SDS011;6757;52.258;12.840;2023-05-07T04:00:06;5.75;;;2.90;;
7460;SDS011;6757;52.258;12.840;2023-05-07T04:02:34;9.43;;;3.33;;
7460;SDS011;6757;52.258;12.840;2023-05-07T04:05:01;6.20;;;2.90;;
7460;SDS011;6757;52.258;12.840;2023-05-07T04:07:28;7.90;;;3.75;;
7460;SDS011;6757;52.258;12.840;2023-05-07T04:09:55;8.20;;;3.45;;
7460;SDS011;6757;52.258;12.840;2023-05-07T04:12:23;6.93;;;3.22;;
7460;SDS011;6757;52.258;12.840;2023-05-07T04:14:50;7.25;;;3.42;;
7460;SDS011;6757;52.258;12.840;2023-05-07T04:17:17;4.68;;;2.75;;
7460;SDS011;6757;52.258;12.840;2023-05-07T04:19:44;8.90;;;3.60;;
7460;SDS011;6757;52.258;12.840;2023-05-07T04:22:11;5.38;;;2.80;;
7460;SDS011;6757;52.258;12.840;2023-05-07T04:24:38;5.80;;;3.10;;
7460;SDS011;6757;52.258;12.840;2023-05-07T04:27:05;7.43;;;3.25;;
7460;SDS011;6757;52.258;12.840;2023-05-07T04:29:33;4.43;;;2.67;;
7460;SDS011;6757;52.258;12.840;2023-05-07T04:32:00;6.95;;;3.05;;
7460;SDS011;6757;52.258;12.840;2023-05-07T04:34:27;6.47;;;3.13;;
7460;SDS011;6757;52.258;12.840;2023-05-07T04:36:57;9.18;;;3.97;;
7460;SDS011;6757;52.258;12.840;2023-05-07T04:39:25;7.50;;;3.45;;
7460;SDS011;6757;52.258;12.840;2023-05-07T04:41:52;6.45;;;3.55;;
7460;SDS011;6757;52.258;12.840;2023-05-07T04:44:19;8.60;;;3.35;;
7460;SDS011;6757;52.258;12.840;2023-05-07T04:46:47;9.10;;;3.28;;
7460;SDS011;6757;52.258;12.840;2023-05-07T04:49:14;5.38;;;2.92;;
7460;SDS011;6757;52.258;12.840;2023-05-07T04:51:41;6.10;;;3.10;;
7460;SDS011;6757;52.258;12.840;2023-05-07T04:54:08;6.93;;;2.90;;
7460;SDS011;6757;52.258;12.840;2023-05-07T04:56:35;7.03;;;2.85;;
7460;SDS011;6757;52.258;12.840;2023-05-07T04:59:02;9.55;;;3.20;;
7460;SDS011;6757;52.258;12.840;2023-05-07T05:01:29;6.07;;;2.92;;
7460;SDS011;6757;52.258;12.840;2023-05-07T05:03:57;7.93;;;3.28;;
7460;SDS011;6757;52.258;12.840;2023-05-07T05:06:25;6.65;;;2.95;;
7460;SDS011;6757;52.258;12.840;2023-05-07T05:08:52;9.18;;;3.35;;
7460;SDS011;6757;52.258;12.840;2023-05-07T05:11:19;8.40;;;3.33;;
7460;SDS011;6757;52.258;12.840;2023-05-07T05:13:45;10.52;;;3.92;;
7460;SDS011;6757;52.258;12.840;2023-05-07T05:16:14;8.93;;;3.03;;
7460;SDS011;6757;52.258;12.840;2023-05-07T05:18:40;8.82;;;3.30;;
7460;SDS011;6757;52.258;12.840;2023-05-07T05:21:09;4.82;;;2.55;;
7460;SDS011;6757;52.258;12.840;2023-05-07T05:23:36;7.88;;;3.20;;
7460;SDS011;6757;52.258;12.840;2023-05-07T05:26:03;6.43;;;3.47;;
7460;SDS011;6757;52.258;12.840;2023-05-07T05:28:30;7.07;;;3.42;;
7460;SDS011;6757;52.258;12.840;2023-05-07T05:30:56;6.88;;;3.00;;
7460;SDS011;6757;52.258;12.840;2023-05-07T05:33:23;8.35;;;3.95;;
7460;SDS011;6757;52.258;12.840;2023-05-07T05:35:50;7.50;;;2.95;;
7460;SDS011;6757;52.258;12.840;2023-05-07T05:38:18;7.18;;;2.72;;
7460;SDS011;6757;52.258;12.840;2023-05-07T05:40:45;8.55;;;3.83;;
7460;SDS011;6757;52.258;12.840;2023-05-07T05:43:13;7.30;;;3.17;;
7460;SDS011;6757;52.258;12.840;2023-05-07T05:45:40;11.07;;;3.95;;
7460;SDS011;6757;52.258;12.840;2023-05-07T05:48:07;8.50;;;3.65;;
7460;SDS011;6757;52.258;12.840;2023-05-07T05:50:34;6.75;;;3.15;;
7460;SDS011;6757;52.258;12.840;2023-05-07T05:53:01;9.63;;;3.63;;
7460;SDS011;6757;52.258;12.840;2023-05-07T05:55:30;9.50;;;3.92;;
7460;SDS011;6757;52.258;12.840;2023-05-07T05:57:58;7.68;;;3.60;;
7460;SDS011;6757;52.258;12.840;2023-05-07T06:00:25;8.43;;;3.78;;
7460;SDS011;6757;52.258;12.840;2023-05-07T06:02:52;9.77;;;4.10;;
7460;SDS011;6757;52.258;12.840;2023-05-07T06:05:18;8.77;;;3.65;;
7460;SDS011;6757;52.258;12.840;2023-05-07T06:07:45;8.80;;;3.85;;
7460;SDS011;6757;52.258;12.840;2023-05-07T06:10:12;8.85;;;3.85;;
7460;SDS011;6757;52.258;12.840;2023-05-07T06:12:41;9.93;;;3.50;;
7460;SDS011;6757;52.258;12.840;2023-05-07T06:15:08;8.70;;;3.45;;
7460;SDS011;6757;52.258;12.840;2023-05-07T06:17:36;8.70;;;3.58;;
7460;SDS011;6757;52.258;12.840;2023-05-07T06:20:03;8.18;;;3.40;;
7460;SDS011;6757;52.258;12.840;2023-05-07T06:22:31;8.32;;;3.28;;
7460;SDS011;6757;52.258;12.840;2023-05-07T06:24:58;12.45;;;3.70;;
7460;SDS011;6757;52.258;12.840;2023-05-07T06:27:25;8.52;;;3.47;;
7460;SDS011;6757;52.258;12.840;2023-05-07T06:29:54;7.97;;;3.75;;
7460;SDS011;6757;52.258;12.840;2023-05-07T06:32:21;9.88;;;4.00;;
7460;SDS011;6757;52.258;12.840;2023-05-07T06:34:48;6.63;;;3.00;;
7460;SDS011;6757;52.258;12.840;2023-05-07T06:37:15;9.73;;;3.20;;
7460;SDS011;6757;52.258;12.840;2023-05-07T06:39:41;10.50;;;3.95;;
7460;SDS011;6757;52.258;12.840;2023-05-07T06:42:08;8.05;;;3.78;;
7460;SDS011;6757;52.258;12.840;2023-05-07T06:44:35;10.77;;;3.90;;
7460;SDS011;6757;52.258;12.840;2023-05-07T06:47:03;8.02;;;3.38;;
7460;SDS011;6757;52.258;12.840;2023-05-07T06:49:31;9.60;;;3.72;;
7460;SDS011;6757;52.258;12.840;2023-05-07T06:51:58;7.38;;;3.40;;
7460;SDS011;6757;52.258;12.840;2023-05-07T06:54:25;6.72;;;2.95;;
7460;SDS011;6757;52.258;12.840;2023-05-07T06:56:52;8.80;;;3.30;;
7460;SDS011;6757;52.258;12.840;2023-05-07T06:59:18;6.13;;;3.45;;
7460;SDS011;6757;52.258;12.840;2023-05-07T07:01:45;11.48;;;3.85;;
7460;SDS011;6757;52.258;12.840;2023-05-07T07:04:14;8.75;;;3.53;;
7460;SDS011;6757;52.258;12.840;2023-05-07T07:06:41;6.95;;;3.22;;
7460;SDS011;6757;52.258;12.840;2023-05-07T07:09:07;10.95;;;3.83;;
7460;SDS011;6757;52.258;12.840;2023-05-07T07:11:34;8.65;;;3.75;;
7460;SDS011;6757;52.258;12.840;2023-05-07T07:14:02;8.07;;;3.00;;
7460;SDS011;6757;52.258;12.840;2023-05-07T07:16:30;6.00;;;2.80;;
7460;SDS011;6757;52.258;12.840;2023-05-07T07:18:57;7.68;;;3.22;;
7460;SDS011;6757;52.258;12.840;2023-05-07T07:21:25;9.82;;;3.75;;
7460;SDS011;6757;52.258;12.840;2023-05-07T07:23:52;7.80;;;3.40;;
7460;SDS011;6757;52.258;12.840;2023-05-07T07:26:19;8.32;;;3.33;;
7460;SDS011;6757;52.258;12.840;2023-05-07T07:28:46;7.63;;;3.30;;
7460;SDS011;6757;52.258;12.840;2023-05-07T07:31:13;9.40;;;3.35;;
7460;SDS011;6757;52.258;12.840;2023-05-07T07:33:40;5.25;;;2.70;;
7460;SDS011;6757;52.258;12.840;2023-05-07T07:36:07;6.97;;;2.80;;
7460;SDS011;6757;52.258;12.840;2023-05-07T07:38:35;8.82;;;3.72;;
7460;SDS011;6757;52.258;12.840;2023-05-07T07:41:02;5.97;;;3.08;;
7460;SDS011;6757;52.258;12.840;2023-05-07T07:43:29;5.68;;;3.03;;
7460;SDS011;6757;52.258;12.840;2023-05-07T07:45:56;9.20;;;3.72;;
7460;SDS011;6757;52.258;12.840;2023-05-07T07:48:23;9.20;;;4.07;;
7460;SDS011;6757;52.258;12.840;2023-05-07T07:50:50;6.35;;;2.92;;
7460;SDS011;6757;52.258;12.840;2023-05-07T07:53:17;7.70;;;2.83;;
7460;SDS011;6757;52.258;12.840;2023-05-07T07:55:45;7.90;;;2.95;;
7460;SDS011;6757;52.258;12.840;2023-05-07T07:58:12;9.43;;;3.63;;
7460;SDS011;6757;52.258;12.840;2023-05-07T08:00:39;5.38;;;2.83;;
7460;SDS011;6757;52.258;12.840;2023-05-07T08:03:08;7.85;;;3.15;;
7460;SDS011;6757;52.258;12.840;2023-05-07T08:05:36;6.30;;;3.25;;
7460;SDS011;6757;52.258;12.840;2023-05-07T08:08:03;6.88;;;3.10;;
7460;SDS011;6757;52.258;12.840;2023-05-07T08:10:31;7.43;;;3.00;;
7460;SDS011;6757;52.258;12.840;2023-05-07T08:13:01;6.90;;;2.88;;
7460;SDS011;6757;52.258;12.840;2023-05-07T08:15:28;6.00;;;2.83;;
7460;SDS011;6757;52.258;12.840;2023-05-07T08:17:55;9.73;;;3.20;;
7460;SDS011;6757;52.258;12.840;2023-05-07T08:20:23;9.65;;;3.85;;
7460;SDS011;6757;52.258;12.840;2023-05-07T08:22:50;8.05;;;2.78;;
7460;SDS011;6757;52.258;12.840;2023-05-07T08:25:17;6.65;;;3.20;;
7460;SDS011;6757;52.258;12.840;2023-05-07T08:27:44;5.95;;;2.60;;
7460;SDS011;6757;52.258;12.840;2023-05-07T08:30:13;7.68;;;3.33;;
7460;SDS011;6757;52.258;12.840;2023-05-07T08:32:41;7.60;;;3.22;;
7460;SDS011;6757;52.258;12.840;2023-05-07T08:35:08;6.45;;;2.78;;
7460;SDS011;6757;52.258;12.840;2023-05-07T08:37:35;7.45;;;3.13;;
7460;SDS011;6757;52.258;12.840;2023-05-07T08:40:02;8.05;;;2.97;;
7460;SDS011;6757;52.258;12.840;2023-05-07T08:42:31;7.45;;;3.40;;
7460;SDS011;6757;52.258;12.840;2023-05-07T08:45:01;5.82;;;2.53;;
7460;SDS011;6757;52.258;12.840;2023-05-07T08:47:34;4.90;;;2.70;;
7460;SDS011;6757;52.258;12.840;2023-05-07T08:50:06;9.60;;;3.15;;
7460;SDS011;6757;52.258;12.840;2023-05-07T08:52:34;7.47;;;2.88;;
7460;SDS011;6757;52.258;12.840;2023-05-07T08:55:02;4.60;;;2.72;;
7460;SDS011;6757;52.258;12.840;2023-05-07T08:57:30;8.23;;;3.08;;
7460;SDS011;6757;52.258;12.840;2023-05-07T08:59:57;7.55;;;3.50;;
7460;SDS011;6757;52.258;12.840;2023-05-07T09:02:24;6.70;;;3.05;;
7460;SDS011;6757;52.258;12.840;2023-05-07T09:04:52;5.25;;;2.70;;
7460;SDS011;6757;52.258;12.840;2023-05-07T09:07:19;5.05;;;2.60;;
7460;SDS011;6757;52.258;12.840;2023-05-07T09:09:46;6.80;;;2.80;;
7460;SDS011;6757;52.258;12.840;2023-05-07T09:12:13;8.18;;;3.13;;
7460;SDS011;6757;52.258;12.840;2023-05-07T09:14:40;7.88;;;3.20;;
7460;SDS011;6757;52.258;12.840;2023-05-07T09:17:07;6.78;;;2.67;;
7460;SDS011;6757;52.258;12.840;2023-05-07T09:19:34;6.43;;;2.63;;
7460;SDS011;6757;52.258;12.840;2023-05-07T09:22:03;6.72;;;3.00;;
7460;SDS011;6757;52.258;12.840;2023-05-07T09:24:32;7.22;;;3.10;;
7460;SDS011;6757;52.258;12.840;2023-05-07T09:27:02;8.05;;;3.20;;
7460;SDS011;6757;52.258;12.840;2023-05-07T09:29:30;6.50;;;3.05;;
7460;SDS011;6757;52.258;12.840;2023-05-07T09:32:00;6.28;;;3.00;;
7460;SDS011;6757;52.258;12.840;2023-05-07T09:34:28;4.70;;;2.60;;
7460;SDS011;6757;52.258;12.840;2023-05-07T09:36:55;5.05;;;2.45;;
7460;SDS011;6757;52.258;12.840;2023-05-07T09:39:24;6.20;;;3.00;;
7460;SDS011;6757;52.258;12.840;2023-05-07T09:41:51;6.00;;;2.75;;
7460;SDS011;6757;52.258;12.840;2023-05-07T09:44:19;5.95;;;3.03;;
7460;SDS011;6757;52.258;12.840;2023-05-07T09:46:50;10.35;;;3.65;;
7460;SDS011;6757;52.258;12.840;2023-05-07T09:49:21;7.55;;;3.10;;
7460;SDS011;6757;52.258;12.840;2023-05-07T09:51:50;7.38;;;3.30;;
7460;SDS011;6757;52.258;12.840;2023-05-07T09:54:18;7.68;;;3.55;;
7460;SDS011;6757;52.258;12.840;2023-05-07T09:56:48;7.20;;;3.58;;
7460;SDS011;6757;52.258;12.840;2023-05-07T09:59:16;5.53;;;2.85;;
7460;SDS011;6757;52.258;12.840;2023-05-07T10:01:44;8.02;;;2.85;;
7460;SDS011;6757;52.258;12.840;2023-05-07T10:04:11;6.60;;;3.22;;
7460;SDS011;6757;52.258;12.840;2023-05-07T10:06:38;7.20;;;3.28;;
7460;SDS011;6757;52.258;12.840;2023-05-07T10:09:07;7.95;;;3.28;;
7460;SDS011;6757;52.258;12.840;2023-05-07T10:11:35;5.00;;;2.88;;
7460;SDS011;6757;52.258;12.840;2023-05-07T10:14:03;9.52;;;2.90;;
7460;SDS011;6757;52.258;12.840;2023-05-07T10:16:31;5.47;;;2.88;;
7460;SDS011;6757;52.258;12.840;2023-05-07T10:19:02;8.13;;;3.10;;
7460;SDS011;6757;52.258;12.840;2023-05-07T10:21:29;6.93;;;2.90;;
7460;SDS011;6757;52.258;12.840;2023-05-07T10:23:59;7.53;;;2.85;;
7460;SDS011;6757;52.258;12.840;2023-05-07T10:26:31;4.90;;;2.45;;
7460;SDS011;6757;52.258;12.840;2023-05-07T10:29:01;5.00;;;2.60;;
7460;SDS011;6757;52.258;12.840;2023-05-07T10:34:23;5.53;;;2.45;;
7460;SDS011;6757;52.258;12.840;2023-05-07T10:36:52;6.72;;;2.78;;
7460;SDS011;6757;52.258;12.840;2023-05-07T10:39:22;5.70;;;3.00;;
7460;SDS011;6757;52.258;12.840;2023-05-07T10:41:49;6.45;;;2.95;;
7460;SDS011;6757;52.258;12.840;2023-05-07T10:44:27;6.30;;;2.78;;
7460;SDS011;6757;52.258;12.840;2023-05-07T10:47:05;8.18;;;3.00;;
7460;SDS011;6757;52.258;12.840;2023-05-07T10:49:34;4.93;;;2.60;;
7460;SDS011;6757;52.258;12.840;2023-05-07T10:52:12;7.90;;;3.28;;
7460;SDS011;6757;52.258;12.840;2023-05-07T10:54:41;6.47;;;2.53;;
7460;SDS011;6757;52.258;12.840;2023-05-07T10:57:32;5.18;;;2.63;;
7460;SDS011;6757;52.258;12.840;2023-05-07T11:00:03;6.13;;;2.80;;
7460;SDS011;6757;52.258;12.840;2023-05-07T11:03:09;5.25;;;2.72;;
7460;SDS011;6757;52.258;12.840;2023-05-07T11:05:37;5.72;;;2.72;;
7460;SDS011;6757;52.258;12.840;2023-05-07T11:08:04;4.13;;;2.55;;
7460;SDS011;6757;52.258;12.840;2023-05-07T11:10:47;5.63;;;2.80;;
7460;SDS011;6757;52.258;12.840;2023-05-07T11:13:17;5.47;;;2.72;;
7460;SDS011;6757;52.258;12.840;2023-05-07T11:15:46;4.53;;;2.50;;
7460;SDS011;6757;52.258;12.840;2023-05-07T11:18:14;4.15;;;2.38;;
7460;SDS011;6757;52.258;12.840;2023-05-07T11:20:46;4.60;;;2.35;;
7460;SDS011;6757;52.258;12.840;2023-05-07T11:26:25;6.68;;;3.00;;
7460;SDS011;6757;52.258;12.840;2023-05-07T11:28:55;5.80;;;2.67;;
7460;SDS011;6757;52.258;12.840;2023-05-07T11:31:24;5.82;;;2.90;;
7460;SDS011;6757;52.258;12.840;2023-05-07T11:33:53;7.50;;;2.80;;
7460;SDS011;6757;52.258;12.840;2023-05-07T11:36:22;7.95;;;3.13;;
7460;SDS011;6757;52.258;12.840;2023-05-07T11:38:50;4.28;;;2.53;;
7460;SDS011;6757;52.258;12.840;2023-05-07T11:41:17;3.97;;;2.58;;
7460;SDS011;6757;52.258;12.840;2023-05-07T11:43:58;5.40;;;2.72;;
7460;SDS011;6757;52.258;12.840;2023-05-07T11:46:27;5.75;;;2.80;;
7460;SDS011;6757;52.258;12.840;2023-05-07T11:48:55;4.95;;;2.53;;
7460;SDS011;6757;52.258;12.840;2023-05-07T11:51:23;3.53;;;2.38;;
7460;SDS011;6757;52.258;12.840;2023-05-07T11:53:52;5.32;;;2.70;;
7460;SDS011;6757;52.258;12.840;2023-05-07T11:56:19;4.47;;;2.85;;
7460;SDS011;6757;52.258;12.840;2023-05-07T11:58:47;3.80;;;2.47;;
7460;SDS011;6757;52.258;12.840;2023-05-07T12:01:15;5.55;;;2.90;;
7460;SDS011;6757;52.258;12.840;2023-05-07T12:03:45;6.38;;;2.55;;
7460;SDS011;6757;52.258;12.840;2023-05-07T12:06:13;5.80;;;2.58;;
7460;SDS011;6757;52.258;12.840;2023-05-07T12:08:42;7.00;;;2.90;;
7460;SDS011;6757;52.258;12.840;2023-05-07T12:11:12;7.28;;;2.80;;
7460;SDS011;6757;52.258;12.840;2023-05-07T12:13:42;3.95;;;2.28;;
7460;SDS011;6757;52.258;12.840;2023-05-07T12:16:09;5.18;;;2.65;;
7460;SDS011;6757;52.258;12.840;2023-05-07T12:18:37;4.72;;;2.45;;
7460;SDS011;6757;52.258;12.840;2023-05-07T12:21:06;4.63;;;2.30;;
7460;SDS011;6757;52.258;12.840;2023-05-07T12:23:34;3.65;;;2.25;;
7460;SDS011;6757;52.258;12.840;2023-05-07T12:26:02;5.25;;;2.42;;
7460;SDS011;6757;52.258;12.840;2023-05-07T12:28:31;4.68;;;2.50;;
7460;SDS011;6757;52.258;12.840;2023-05-07T12:31:03;4.05;;;2.13;;
7460;SDS011;6757;52.258;12.840;2023-05-07T12:33:31;4.03;;;2.25;;
7460;SDS011;6757;52.258;12.840;2023-05-07T12:35:58;4.07;;;2.08;;
7460;SDS011;6757;52.258;12.840;2023-05-07T12:38:34;3.78;;;2.42;;
7460;SDS011;6757;52.258;12.840;2023-05-07T12:41:03;3.72;;;2.25;;
7460;SDS011;6757;52.258;12.840;2023-05-07T12:43:30;4.78;;;2.00;;
7460;SDS011;6757;52.258;12.840;2023-05-07T12:45:59;2.75;;;1.95;;
7460;SDS011;6757;52.258;12.840;2023-05-07T12:48:28;4.15;;;2.30;;
7460;SDS011;6757;52.258;12.840;2023-05-07T12:50:55;4.18;;;2.20;;
7460;SDS011;6757;52.258;12.840;2023-05-07T12:53:25;3.65;;;2.08;;
7460;SDS011;6757;52.258;12.840;2023-05-07T12:55:54;4.82;;;2.42;;
7460;SDS011;6757;52.258;12.840;2023-05-07T12:58:24;2.88;;;2.10;;
7460;SDS011;6757;52.258;12.840;2023-05-07T13:00:52;3.65;;;2.25;;
7460;SDS011;6757;52.258;12.840;2023-05-07T13:03:23;4.10;;;2.20;;
7460;SDS011;6757;52.258;12.840;2023-05-07T13:05:52;4.13;;;2.10;;
7460;SDS011;6757;52.258;12.840;2023-05-07T13:08:25;4.63;;;2.25;;
7460;SDS011;6757;52.258;12.840;2023-05-07T13:10:54;5.75;;;2.70;;
7460;SDS011;6757;52.258;12.840;2023-05-07T13:13:23;4.40;;;1.92;;
7460;SDS011;6757;52.258;12.840;2023-05-07T13:15:50;4.32;;;2.10;;
7460;SDS011;6757;52.258;12.840;2023-05-07T13:18:17;3.30;;;2.30;;
7460;SDS011;6757;52.258;12.840;2023-05-07T13:20:44;4.15;;;2.28;;
7460;SDS011;6757;52.258;12.840;2023-05-07T13:23:11;3.78;;;2.25;;
7460;SDS011;6757;52.258;12.840;2023-05-07T13:25:39;2.28;;;2.08;;
7460;SDS011;6757;52.258;12.840;2023-05-07T13:28:06;3.65;;;2.30;;
7460;SDS011;6757;52.258;12.840;2023-05-07T13:30:33;3.97;;;2.03;;
7460;SDS011;6757;52.258;12.840;2023-05-07T13:33:00;3.15;;;2.10;;
7460;SDS011;6757;52.258;12.840;2023-05-07T13:35:27;4.45;;;2.25;;
7460;SDS011;6757;52.258;12.840;2023-05-07T13:37:54;4.07;;;2.05;;
7460;SDS011;6757;52.258;12.840;2023-05-07T13:40:21;2.47;;;2.08;;
7460;SDS011;6757;52.258;12.840;2023-05-07T13:42:50;4.13;;;2.25;;
7460;SDS011;6757;52.258;12.840;2023-05-07T13:45:17;2.70;;;1.80;;
7460;SDS011;6757;52.258;12.840;2023-05-07T13:47:44;3.13;;;2.08;;
7460;SDS011;6757;52.258;12.840;2023-05-07T13:50:12;4.03;;;2.40;;
7460;SDS011;6757;52.258;12.840;2023-05-07T13:52:40;4.32;;;2.05;;
7460;SDS011;6757;52.258;12.840;2023-05-07T13:57:37;3.45;;;2.13;;
7460;SDS011;6757;52.258;12.840;2023-05-07T14:00:06;4.57;;;2.60;;
7460;SDS011;6757;52.258;12.840;2023-05-07T14:02:35;2.30;;;1.90;;
7460;SDS011;6757;52.258;12.840;2023-05-07T14:05:02;3.30;;;2.20;;
7460;SDS011;6757;52.258;12.840;2023-05-07T14:07:29;4.95;;;2.40;;
7460;SDS011;6757;52.258;12.840;2023-05-07T14:09:57;3.25;;;2.20;;
7460;SDS011;6757;52.258;12.840;2023-05-07T14:12:24;5.90;;;2.47;;
7460;SDS011;6757;52.258;12.840;2023-05-07T14:14:50;2.65;;;2.05;;
7460;SDS011;6757;52.258;12.840;2023-05-07T14:17:19;3.88;;;2.45;;
7460;SDS011;6757;52.258;12.840;2023-05-07T14:19:48;4.35;;;2.15;;
7460;SDS011;6757;52.258;12.840;2023-05-07T14:22:15;6.65;;;2.55;;
7460;SDS011;6757;52.258;12.840;2023-05-07T14:24:41;3.97;;;2.30;;
7460;SDS011;6757;52.258;12.840;2023-05-07T14:27:08;4.22;;;2.22;;
7460;SDS011;6757;52.258;12.840;2023-05-07T14:29:35;2.90;;;2.10;;
7460;SDS011;6757;52.258;12.840;2023-05-07T14:32:02;3.60;;;2.15;;
7460;SDS011;6757;52.258;12.840;2023-05-07T14:34:31;2.30;;;2.05;;
7460;SDS011;6757;52.258;12.840;2023-05-07T14:36:59;2.90;;;2.00;;
7460;SDS011;6757;52.258;12.840;2023-05-07T14:39:26;3.25;;;2.35;;
7460;SDS011;6757;52.258;12.840;2023-05-07T14:41:53;3.72;;;2.10;;
7460;SDS011;6757;52.258;12.840;2023-05-07T14:44:21;2.38;;;1.98;;
7460;SDS011;6757;52.258;12.840;2023-05-07T14:46:47;3.15;;;2.20;;
7460;SDS011;6757;52.258;12.840;2023-05-07T14:49:14;3.67;;;2.05;;
7460;SDS011;6757;52.258;12.840;2023-05-07T14:51:44;3.53;;;2.30;;
7460;SDS011;6757;52.258;12.840;2023-05-07T14:54:11;4.50;;;2.10;;
7460;SDS011;6757;52.258;12.840;2023-05-07T14:56:38;2.25;;;2.03;;
7460;SDS011;6757;52.258;12.840;2023-05-07T14:59:06;4.20;;;2.20;;
7460;SDS011;6757;52.258;12.840;2023-05-07T15:01:33;5.10;;;2.30;;
7460;SDS011;6757;52.258;12.840;2023-05-07T15:04:02;3.58;;;2.05;;
7460;SDS011;6757;52.258;12.840;2023-05-07T15:06:30;3.97;;;2.20;;
7460;SDS011;6757;52.258;12.840;2023-05-07T15:08:59;5.30;;;2.10;;
7460;SDS011;6757;52.258;12.840;2023-05-07T15:11:26;2.75;;;2.00;;
7460;SDS011;6757;52.258;12.840;2023-05-07T15:13:53;2.63;;;2.03;;